Time;durP1;ratioP1;P1;durP2;ratioP2;P2;SDS_P1;SDS_P2;PMS_P1;PMS_P2;Temp;Humidity;BMP_temperature;BMP_pressure;BME280_temperature;BME280_humidity;BME280_pressure;Samples;Min_cycle;Max_cycle;Signal;HPM_P1;HPM_P2
2022/10/30 00:00:38;;;;;;;22.23;12.23;;;;;;;;;;6314358;28;20052;-69
2022/10/30 00:03:39;;;;;;;23.13;12.82;;;;;;;;;;6311572;28;20054;-68
2022/10/30 00:06:41;;;;;;;20.20;12.20;;;;;;;;;;6312939;28;20097;-69
2022/10/30 00:09:42;;;;;;;21.38;13.23;;;;;;;;;;6312773;28;20348;-69
2022/10/30 00:12:44;;;;;;;25.02;12.38;;;;;;;;;;6301097;28;20257;-70
2022/10/30 00:15:51;;;;;;;23.38;12.20;;;;;;;;;;6310598;28;20040;-69
2022/10/30 00:18:53;;;;;;;21.95;12.00;;;;;;;;;;6312398;28;20093;-69
2022/10/30 00:21:56;;;;;;;23.67;13.13;;;;;;;;;;6307744;28;20060;-69
2022/10/30 00:24:58;;;;;;;22.80;12.50;;;;;;;;;;6312019;28;20048;-70
2022/10/30 00:27:59;;;;;;;18.65;11.75;;;;;;;;;;6312279;28;20048;-69
2022/10/30 00:31:04;;;;;;;17.50;11.68;;;;;;;;;;6311023;28;20052;-69
2022/10/30 00:34:05;;;;;;;21.13;12.23;;;;;;;;;;6310264;28;20414;-69
2022/10/30 00:37:07;;;;;;;17.10;11.15;;;;;;;;;;6312318;28;20060;-69
2022/10/30 00:40:14;;;;;;;20.55;11.63;;;;;;;;;;6312659;28;20051;-69
2022/10/30 00:43:30;;;;;;;19.92;11.50;;;;;;;;;;6314407;28;20048;-69
2022/10/30 00:46:36;;;;;;;19.77;10.93;;;;;;;;;;6313825;28;25757;-69
2022/10/30 00:49:43;;;;;;;18.40;11.55;;;;;;;;;;6315163;28;20048;-69
2022/10/30 00:52:49;;;;;;;17.67;10.50;;;;;;;;;;6313857;28;20109;-69
2022/10/30 00:55:54;;;;;;;22.13;11.15;;;;;;;;;;6316227;28;20052;-69
2022/10/30 00:58:59;;;;;;;21.30;11.40;;;;;;;;;;6309714;28;20075;-69
2022/10/30 01:02:03;;;;;;;18.02;12.38;;;;;;;;;;6314061;28;20229;-69
2022/10/30 01:05:06;;;;;;;19.48;10.88;;;;;;;;;;6314026;28;20287;-69
2022/10/30 01:08:07;;;;;;;18.20;10.85;;;;;;;;;;6305792;28;20437;-68
2022/10/30 01:11:09;;;;;;;20.23;11.82;;;;;;;;;;6308079;28;20124;-69
2022/10/30 01:14:13;;;;;;;19.15;11.35;;;;;;;;;;6303429;28;20056;-69
2022/10/30 01:17:41;;;;;;;18.27;11.48;;;;;;;;;;6309685;28;20060;-69
2022/10/30 01:20:54;;;;;;;23.83;11.15;;;;;;;;;;6302054;28;20056;-69
2022/10/30 01:24:06;;;;;;;18.02;10.88;;;;;;;;;;6306211;28;20060;-69
2022/10/30 01:27:17;;;;;;;17.27;11.32;;;;;;;;;;6310821;28;20040;-69
2022/10/30 01:30:27;;;;;;;22.90;10.85;;;;;;;;;;6311423;28;20147;-69
2022/10/30 01:33:39;;;;;;;19.73;11.85;;;;;;;;;;6312673;28;20103;-69
2022/10/30 01:36:44;;;;;;;20.80;11.25;;;;;;;;;;6311135;28;20344;-69
2022/10/30 01:39:45;;;;;;;18.02;10.82;;;;;;;;;;6311662;28;20087;-69
2022/10/30 01:42:50;;;;;;;21.45;11.27;;;;;;;;;;6303238;28;20057;-69
2022/10/30 01:46:14;;;;;;;18.08;11.30;;;;;;;;;;6305914;28;20064;-69
2022/10/30 01:49:31;;;;;;;20.25;10.95;;;;;;;;;;6305595;28;20164;-69
2022/10/30 01:52:38;;;;;;;16.27;10.38;;;;;;;;;;6311626;28;20146;-69
2022/10/30 01:55:44;;;;;;;15.93;9.60;;;;;;;;;;6309321;28;20048;-69
2022/10/30 01:58:51;;;;;;;19.98;10.73;;;;;;;;;;6310505;28;20137;-69
2022/10/30 02:01:53;;;;;;;18.83;10.52;;;;;;;;;;6310122;28;21184;-69
2022/10/30 02:04:56;;;;;;;16.58;9.75;;;;;;;;;;6310680;28;20102;-69
2022/10/30 02:07:57;;;;;;;16.95;10.73;;;;;;;;;;6308054;28;20574;-69
2022/10/30 02:10:59;;;;;;;14.02;9.85;;;;;;;;;;6309748;28;20060;-69
2022/10/30 02:14:04;;;;;;;20.10;10.43;;;;;;;;;;6309984;28;20065;-69
2022/10/30 02:17:07;;;;;;;15.52;9.80;;;;;;;;;;6308861;28;20341;-69
2022/10/30 02:20:15;;;;;;;17.83;10.55;;;;;;;;;;6310277;28;20347;-69
2022/10/30 02:23:17;;;;;;;19.13;10.43;;;;;;;;;;6304786;28;20048;-69
2022/10/30 02:26:19;;;;;;;16.77;9.98;;;;;;;;;;6311991;28;20052;-69
2022/10/30 02:29:20;;;;;;;13.02;9.63;;;;;;;;;;6311834;28;20044;-69
2022/10/30 02:32:22;;;;;;;15.65;9.65;;;;;;;;;;6311414;28;20339;-69
2022/10/30 02:35:25;;;;;;;15.32;9.23;;;;;;;;;;6312193;28;20229;-69
2022/10/30 02:38:27;;;;;;;16.85;9.18;;;;;;;;;;6304484;28;20089;-69
2022/10/30 02:41:28;;;;;;;11.82;8.48;;;;;;;;;;6317771;28;20052;-69
2022/10/30 02:44:30;;;;;;;15.25;9.05;;;;;;;;;;6311877;28;20104;-69
2022/10/30 02:47:32;;;;;;;15.07;9.23;;;;;;;;;;6313151;28;20052;-69
2022/10/30 02:50:35;;;;;;;14.65;8.93;;;;;;;;;;6318284;28;20103;-69
2022/10/30 02:53:37;;;;;;;12.23;8.37;;;;;;;;;;6312454;28;20060;-69
2022/10/30 02:56:40;;;;;;;14.52;8.23;;;;;;;;;;6317888;28;20445;-69
2022/10/30 02:59:42;;;;;;;16.65;9.35;;;;;;;;;;6322253;28;20051;-69
2022/10/30 03:02:43;;;;;;;15.52;9.10;;;;;;;;;;6314410;28;20259;-69
2022/10/30 03:05:46;;;;;;;15.30;8.70;;;;;;;;;;6312323;28;20052;-69
2022/10/30 03:08:48;;;;;;;13.30;8.40;;;;;;;;;;6309706;28;20044;-70
2022/10/30 03:11:49;;;;;;;12.85;8.55;;;;;;;;;;6311978;28;20482;-69
2022/10/30 03:14:51;;;;;;;14.15;8.88;;;;;;;;;;6310048;28;20056;-69
2022/10/30 03:17:52;;;;;;;13.75;8.82;;;;;;;;;;6308141;28;20114;-69
2022/10/30 03:20:57;;;;;;;15.73;8.48;;;;;;;;;;6305551;28;20101;-69
2022/10/30 03:23:59;;;;;;;15.18;9.77;;;;;;;;;;6311546;28;20093;-69
2022/10/30 03:27:01;;;;;;;13.73;8.50;;;;;;;;;;6310829;28;20059;-69
2022/10/30 03:30:02;;;;;;;13.00;8.20;;;;;;;;;;6306640;28;20485;-69
2022/10/30 03:33:04;;;;;;;13.55;8.20;;;;;;;;;;6311293;28;20059;-69
2022/10/30 03:36:09;;;;;;;16.42;8.73;;;;;;;;;;6305866;28;20052;-69
2022/10/30 03:39:11;;;;;;;13.60;8.45;;;;;;;;;;6308873;28;20066;-69
2022/10/30 03:42:12;;;;;;;14.13;8.27;;;;;;;;;;6310358;28;20052;-69
2022/10/30 03:45:14;;;;;;;13.63;8.55;;;;;;;;;;6303122;28;20060;-69
2022/10/30 03:48:16;;;;;;;13.30;8.55;;;;;;;;;;6309837;28;20060;-69
2022/10/30 03:51:19;;;;;;;15.60;8.20;;;;;;;;;;6309580;28;20043;-69
2022/10/30 03:54:21;;;;;;;13.93;7.83;;;;;;;;;;6306611;28;20067;-69
2022/10/30 03:57:22;;;;;;;13.68;8.32;;;;;;;;;;6301995;28;20849;-69
2022/10/30 04:00:24;;;;;;;10.95;7.82;;;;;;;;;;6312279;28;20052;-69
2022/10/30 04:03:25;;;;;;;14.25;7.78;;;;;;;;;;6312329;28;20225;-69
2022/10/30 04:06:28;;;;;;;13.25;7.90;;;;;;;;;;6304963;28;20612;-69
2022/10/30 04:09:30;;;;;;;11.37;7.77;;;;;;;;;;6306147;28;20403;-69
2022/10/30 04:12:32;;;;;;;13.70;7.97;;;;;;;;;;6309684;28;20105;-69
2022/10/30 04:15:34;;;;;;;14.85;8.05;;;;;;;;;;6308767;28;20060;-70
2022/10/30 04:18:35;;;;;;;17.98;8.27;;;;;;;;;;6307110;28;20040;-69
2022/10/30 04:21:38;;;;;;;15.75;8.52;;;;;;;;;;6304176;28;20110;-69
2022/10/30 04:24:40;;;;;;;11.60;7.67;;;;;;;;;;6308102;28;20324;-69
2022/10/30 04:27:42;;;;;;;13.05;8.48;;;;;;;;;;6306239;28;20482;-69
2022/10/30 04:30:45;;;;;;;13.57;8.05;;;;;;;;;;6303460;28;20209;-69
2022/10/30 04:33:47;;;;;;;12.70;8.43;;;;;;;;;;6309668;28;20048;-69
2022/10/30 04:36:50;;;;;;;12.90;8.25;;;;;;;;;;6306318;28;20098;-69
2022/10/30 04:39:51;;;;;;;12.47;8.07;;;;;;;;;;6304864;28;20099;-69
2022/10/30 04:42:53;;;;;;;13.00;8.15;;;;;;;;;;6306217;28;20125;-69
2022/10/30 04:45:55;;;;;;;13.68;8.32;;;;;;;;;;6306102;28;20063;-69
2022/10/30 04:48:56;;;;;;;15.23;8.23;;;;;;;;;;6307632;28;20044;-69
2022/10/30 04:51:59;;;;;;;17.60;9.15;;;;;;;;;;6306850;28;20060;-69
2022/10/30 04:55:01;;;;;;;13.73;8.70;;;;;;;;;;6310031;28;20055;-69
2022/10/30 04:58:03;;;;;;;13.55;8.02;;;;;;;;;;6305120;28;20757;-69
2022/10/30 05:01:05;;;;;;;12.23;7.88;;;;;;;;;;6303443;28;20117;-69
2022/10/30 05:04:07;;;;;;;12.65;8.02;;;;;;;;;;6308634;28;20102;-69
2022/10/30 05:07:10;;;;;;;14.15;7.80;;;;;;;;;;6304752;28;20382;-69
2022/10/30 05:10:13;;;;;;;13.95;8.95;;;;;;;;;;6305051;28;20137;-69
2022/10/30 05:13:15;;;;;;;17.33;8.73;;;;;;;;;;6304109;28;20835;-69
2022/10/30 05:16:17;;;;;;;16.98;8.93;;;;;;;;;;6305951;28;20079;-69
2022/10/30 05:19:19;;;;;;;12.23;7.97;;;;;;;;;;6306754;28;20048;-69
2022/10/30 05:22:22;;;;;;;14.02;8.15;;;;;;;;;;6304715;28;20085;-69
2022/10/30 05:25:23;;;;;;;18.53;9.40;;;;;;;;;;6304765;28;20056;-69
2022/10/30 05:28:25;;;;;;;14.82;8.40;;;;;;;;;;6305054;28;20048;-69
2022/10/30 05:31:27;;;;;;;14.80;8.82;;;;;;;;;;6306668;28;20059;-69
2022/10/30 05:34:28;;;;;;;13.52;7.75;;;;;;;;;;6306320;28;20048;-69
2022/10/30 05:37:31;;;;;;;15.38;8.88;;;;;;;;;;6305746;28;20102;-69
2022/10/30 05:40:34;;;;;;;14.63;8.07;;;;;;;;;;6305041;28;20275;-69
2022/10/30 05:43:35;;;;;;;13.30;7.55;;;;;;;;;;6305539;28;20255;-69
2022/10/30 05:46:37;;;;;;;14.00;7.95;;;;;;;;;;6302078;28;20101;-69
2022/10/30 05:49:38;;;;;;;12.18;8.52;;;;;;;;;;6306935;28;20056;-69
2022/10/30 05:52:41;;;;;;;12.55;7.95;;;;;;;;;;6305682;28;20044;-69
2022/10/30 05:55:43;;;;;;;13.70;8.53;;;;;;;;;;6307458;28;20052;-70
2022/10/30 05:58:44;;;;;;;10.38;7.53;;;;;;;;;;6304182;28;20084;-70
2022/10/30 06:01:46;;;;;;;14.20;8.40;;;;;;;;;;6301493;28;20067;-69
2022/10/30 06:04:47;;;;;;;11.93;8.10;;;;;;;;;;6313999;28;20101;-69
2022/10/30 06:07:50;;;;;;;12.75;7.28;;;;;;;;;;6315435;28;20052;-69
2022/10/30 06:10:53;;;;;;;11.87;7.63;;;;;;;;;;6312797;28;20048;-69
2022/10/30 06:13:55;;;;;;;12.83;7.83;;;;;;;;;;6311184;28;20053;-69
2022/10/30 06:16:56;;;;;;;12.55;7.32;;;;;;;;;;6309860;28;20048;-69
2022/10/30 06:19:58;;;;;;;14.32;7.93;;;;;;;;;;6309420;28;20045;-70
2022/10/30 06:23:03;;;;;;;12.18;7.30;;;;;;;;;;6312307;28;20064;-70
2022/10/30 06:26:05;;;;;;;15.98;7.68;;;;;;;;;;6313411;28;20052;-70
2022/10/30 06:29:06;;;;;;;12.25;7.82;;;;;;;;;;6313093;28;20056;-70
2022/10/30 06:32:08;;;;;;;14.20;8.18;;;;;;;;;;6312255;28;20279;-69
2022/10/30 06:35:10;;;;;;;9.60;7.15;;;;;;;;;;6311090;28;20047;-71
2022/10/30 06:38:14;;;;;;;12.43;7.55;;;;;;;;;;6316315;28;20064;-68
2022/10/30 06:41:17;;;;;;;11.95;8.13;;;;;;;;;;6312951;28;20219;-73
2022/10/30 06:44:18;;;;;;;13.95;8.07;;;;;;;;;;6313738;28;20379;-72
2022/10/30 06:47:20;;;;;;;13.02;8.13;;;;;;;;;;6314745;28;20043;-70
2022/10/30 06:50:23;;;;;;;13.40;7.55;;;;;;;;;;6315502;28;20075;-70
2022/10/30 06:53:26;;;;;;;12.52;7.90;;;;;;;;;;6313624;28;20281;-70
2022/10/30 06:56:28;;;;;;;13.27;8.23;;;;;;;;;;6310772;28;20056;-70
2022/10/30 06:59:29;;;;;;;17.10;8.70;;;;;;;;;;6307084;28;20100;-70
2022/10/30 07:02:31;;;;;;;13.35;8.68;;;;;;;;;;6296620;28;20056;-70
2022/10/30 07:05:32;;;;;;;15.77;8.00;;;;;;;;;;6311723;28;20078;-70
2022/10/30 07:08:35;;;;;;;14.43;8.65;;;;;;;;;;6314952;28;20053;-70
2022/10/30 07:11:39;;;;;;;13.97;8.83;;;;;;;;;;6316632;28;20052;-70
2022/10/30 07:14:40;;;;;;;13.30;8.82;;;;;;;;;;6310173;28;21646;-70
2022/10/30 07:17:42;;;;;;;12.38;8.52;;;;;;;;;;6303633;28;20056;-70
2022/10/30 07:20:43;;;;;;;13.00;8.85;;;;;;;;;;6310101;28;20324;-70
2022/10/30 07:23:46;;;;;;;16.77;9.65;;;;;;;;;;6313657;28;20259;-70
2022/10/30 07:26:48;;;;;;;17.95;10.13;;;;;;;;;;6306855;28;20098;-70
2022/10/30 07:29:50;;;;;;;14.27;9.35;;;;;;;;;;6307240;28;20093;-70
2022/10/30 07:33:01;;;;;;;13.73;10.48;;;;;;;;;;6306760;28;20052;-70
2022/10/30 07:36:03;;;;;;;13.18;9.75;;;;;;;;;;6308122;28;20049;-70
2022/10/30 07:39:06;;;;;;;14.48;9.43;;;;;;;;;;6304869;28;20404;-70
2022/10/30 07:42:08;;;;;;;13.10;8.85;;;;;;;;;;6308324;28;20056;-70
2022/10/30 07:45:10;;;;;;;13.52;9.00;;;;;;;;;;6309049;28;20056;-70
2022/10/30 07:48:11;;;;;;;10.98;8.23;;;;;;;;;;6307052;28;20106;-69
2022/10/30 07:51:14;;;;;;;13.05;9.02;;;;;;;;;;6309625;28;20052;-70
2022/10/30 07:54:16;;;;;;;12.05;7.93;;;;;;;;;;6308033;28;20066;-70
2022/10/30 07:57:18;;;;;;;12.85;8.15;;;;;;;;;;6305452;28;20331;-70
2022/10/30 08:00:20;;;;;;;13.60;8.05;;;;;;;;;;6308089;28;20221;-70
2022/10/30 08:03:21;;;;;;;11.20;7.75;;;;;;;;;;6308103;28;20051;-70
2022/10/30 08:06:23;;;;;;;11.93;7.80;;;;;;;;;;6308762;28;20056;-69
2022/10/30 08:09:26;;;;;;;13.32;8.07;;;;;;;;;;6307184;28;20075;-68
2022/10/30 08:12:28;;;;;;;12.93;8.65;;;;;;;;;;6304264;28;20056;-68
2022/10/30 08:15:29;;;;;;;12.07;8.20;;;;;;;;;;6306753;28;20040;-69
2022/10/30 08:18:31;;;;;;;13.18;8.18;;;;;;;;;;6308813;28;20102;-70
2022/10/30 08:21:33;;;;;;;11.82;8.05;;;;;;;;;;6314392;28;20093;-70
2022/10/30 08:24:36;;;;;;;13.82;7.93;;;;;;;;;;6307159;28;20044;-70
2022/10/30 08:27:37;;;;;;;12.65;7.50;;;;;;;;;;6306664;28;20056;-70
2022/10/30 08:30:39;;;;;;;14.35;8.05;;;;;;;;;;6306396;28;20090;-69
2022/10/30 08:33:40;;;;;;;10.85;7.13;;;;;;;;;;6313955;28;20060;-70
2022/10/30 08:36:42;;;;;;;13.82;7.78;;;;;;;;;;6303527;28;20101;-71
2022/10/30 08:39:45;;;;;;;10.15;7.50;;;;;;;;;;6307325;28;20107;-70
2022/10/30 08:42:50;;;;;;;10.90;7.18;;;;;;;;;;6308045;28;20291;-69
2022/10/30 08:45:52;;;;;;;9.93;7.63;;;;;;;;;;6307690;28;20120;-68
2022/10/30 08:48:54;;;;;;;12.10;7.65;;;;;;;;;;6308185;28;20108;-68
2022/10/30 08:51:56;;;;;;;11.43;7.18;;;;;;;;;;6304623;28;20104;-69
2022/10/30 08:54:59;;;;;;;12.38;7.03;;;;;;;;;;6303820;28;20045;-69
2022/10/30 08:58:01;;;;;;;12.10;7.07;;;;;;;;;;6308221;28;20333;-69
2022/10/30 09:01:02;;;;;;;11.73;6.60;;;;;;;;;;6302019;28;20110;-68
2022/10/30 09:04:04;;;;;;;12.20;6.57;;;;;;;;;;6303614;28;20102;-68
2022/10/30 09:07:06;;;;;;;12.07;6.32;;;;;;;;;;6305523;28;20206;-68
2022/10/30 09:10:09;;;;;;;;;;;;;;;;;;6306388;28;20370;-69
2022/10/30 09:13:10;;;;;;;;;;;;;;;;;;6307284;28;19924;-69
2022/10/30 09:16:12;;;;;;;;;;;;;;;;;;6307753;28;19920;-69
2022/10/30 09:19:13;;;;;;;;;;;;;;;;;;6305590;28;19924;-69
2022/10/30 09:22:14;;;;;;;;;;;;;;;;;;6307184;28;19916;-69
2022/10/30 09:25:17;;;;;;;;;;;;;;;;;;6307133;28;19943;-67
2022/10/30 09:28:19;;;;;;;;;;;;;;;;;;6304373;28;20238;-68
2022/10/30 09:31:20;;;;;;;;;;;;;;;;;;6304736;28;20224;-67
2022/10/30 09:34:21;;;;;;;;;;;;;;;;;;6304449;28;19962;-67
2022/10/30 09:37:23;;;;;;;;;;;;;;;;;;6303921;28;19931;-67
2022/10/30 09:40:28;;;;;;;;;;;;;;;;;;6305160;28;19939;-68
2022/10/30 09:43:32;;;;;;;;;;;;;;;;;;6305564;28;19987;-68
2022/10/30 09:46:40;;;;;;;;;;;;;;;;;;6306823;28;19974;-67
2022/10/30 09:49:44;;;;;;;;;;;;;;;;;;6306146;28;20169;-67
2022/10/30 09:52:48;;;;;;;;;;;;;;;;;;6305188;28;19920;-69
2022/10/30 09:55:56;;;;;;;;;;;;;;;;;;6305258;28;19962;-68
2022/10/30 09:58:59;;;;;;;;;;;;;;;;;;6306244;28;19921;-69
2022/10/30 10:02:01;;;;;;;;;;;;;;;;;;6304202;28;19985;-69
2022/10/30 10:05:07;;;;;;;;;;;;;;;;;;6307226;28;19988;-68
2022/10/30 10:08:09;;;;;;;;;;;;;;;;;;6306519;28;19985;-68
2022/10/30 10:11:12;;;;;;;;;;;;;;;;;;6304741;28;19985;-68
2022/10/30 10:14:14;;;;;;;;;;;;;;;;;;6311184;28;19951;-68
2022/10/30 10:17:18;;;;;;;;;;;;;;;;;;6310196;28;19928;-68
2022/10/30 10:20:26;;;;;;;;;;;;;;;;;;6308565;28;20046;-68
2022/10/30 10:23:30;;;;;;;;;;;;;;;;;;6309134;28;20208;-68
2022/10/30 10:26:36;;;;;;;;;;;;;;;;;;6308816;28;19924;-68
2022/10/30 10:29:42;;;;;;;;;;;;;;;;;;6306721;28;20188;-68
2022/10/30 10:32:47;;;;;;;;;;;;;;;;;;6310765;28;20108;-68
2022/10/30 10:35:53;;;;;;;;;;;;;;;;;;6308158;28;20180;-68
2022/10/30 10:39:01;;;;;;;;;;;;;;;;;;6308220;28;19931;-68
2022/10/30 10:42:07;;;;;;;;;;;;;;;;;;6309273;28;19920;-68
2022/10/30 10:45:19;;;;;;;;;;;;;;;;;;6312856;28;19925;-68
2022/10/30 10:48:25;;;;;;;;;;;;;;;;;;6311470;28;19954;-68
2022/10/30 10:51:27;;;;;;;;;;;;;;;;;;6308952;28;19928;-68
2022/10/30 10:54:29;;;;;;;;;;;;;;;;;;6309762;28;19925;-68
2022/10/30 10:57:33;;;;;;;;;;;;;;;;;;6306517;28;19989;-68
2022/10/30 11:00:35;;;;;;;;;;;;;;;;;;6308037;28;19946;-68
2022/10/30 11:03:37;;;;;;;;;;;;;;;;;;6310905;28;20204;-68
2022/10/30 11:06:39;;;;;;;;;;;;;;;;;;6309099;28;20197;-68
2022/10/30 11:09:40;;;;;;;;;;;;;;;;;;6310884;28;19927;-68
2022/10/30 11:12:43;;;;;;;;;;;;;;;;;;6309257;28;20139;-68
2022/10/30 11:15:47;;;;;;;;;;;;;;;;;;6309902;28;20025;-68
2022/10/30 11:18:49;;;;;;;;;;;;;;;;;;6310674;28;19977;-68
2022/10/30 11:21:51;;;;;;;;;;;;;;;;;;6309034;28;19962;-68
2022/10/30 11:24:53;;;;;;;;;;;;;;;;;;6304088;28;19915;-68
2022/10/30 11:27:56;;;;;;;;;;;;;;;;;;6307752;28;19954;-70
2022/10/30 11:31:01;;;;;;;;;;;;;;;;;;6304742;28;19970;-68
2022/10/30 11:34:20;;;;;;;;;;;;;;;;;;6311046;28;20216;-68
2022/10/30 11:37:29;;;;;;;;;;;;;;;;;;6307113;28;19916;-68
2022/10/30 11:40:30;;;;;;;;;;;;;;;;;;6306066;28;19954;-68
2022/10/30 11:43:33;;;;;;;;;;;;;;;;;;6308028;28;19916;-68
2022/10/30 11:46:34;;;;;;;;;;;;;;;;;;6309499;28;19946;-67
2022/10/30 11:49:37;;;;;;;;;;;;;;;;;;6308386;28;19924;-68
2022/10/30 11:52:39;;;;;;;;;;;;;;;;;;6304074;28;19917;-68
2022/10/30 11:55:41;;;;;;;;;;;;;;;;;;6310168;28;20193;-68
2022/10/30 11:58:45;;;;;;;;;;;;;;;;;;6307189;28;20313;-68
2022/10/30 12:01:57;;;;;;;;;;;;;;;;;;6310037;28;20092;-68
2022/10/30 12:05:00;;;;;;;;;;;;;;;;;;6307756;28;19946;-68
2022/10/30 12:08:15;;;;;;;;;;;;;;;;;;6308104;28;20135;-68
2022/10/30 12:11:17;;;;;;;;;;;;;;;;;;6309727;28;19923;-68
2022/10/30 12:14:21;;;;;;;;;;;;;;;;;;6306363;28;19916;-68
2022/10/30 12:17:22;;;;;;;;;;;;;;;;;;6305249;28;19924;-68
2022/10/30 12:20:23;;;;;;;;;;;;;;;;;;6306852;28;19916;-68
2022/10/30 12:23:25;;;;;;;;;;;;;;;;;;6308097;28;19924;-68
2022/10/30 12:26:27;;;;;;;;;;;;;;;;;;6305485;28;20135;-68
2022/10/30 12:29:40;;;;;;;;;;;;;;;;;;6307292;28;20176;-68
2022/10/30 12:32:43;;;;;;;;;;;;;;;;;;6306218;28;19915;-68
2022/10/30 12:35:46;;;;;;;;;;;;;;;;;;6307486;28;19928;-68
2022/10/30 12:38:48;;;;;;;;;;;;;;;;;;6307674;28;20200;-68
2022/10/30 12:41:51;;;;;;;;;;;;;;;;;;6305833;28;20498;-69
2022/10/30 12:44:55;;;;;;;;;;;;;;;;;;6305570;28;19997;-67
2022/10/30 12:47:57;;;;;;;;;;;;;;;;;;6307320;28;19995;-68
2022/10/30 12:51:04;;;;;;;;;;;;;;;;;;6307985;28;19932;-68
2022/10/30 12:54:07;;;;;;;;;;;;;;;;;;6306125;28;19954;-68
2022/10/30 12:57:11;;;;;;;;;;;;;;;;;;6308108;28;19916;-67
2022/10/30 13:00:14;;;;;;;;;;;;;;;;;;6308573;28;19981;-68
2022/10/30 13:03:20;;;;;;;;;;;;;;;;;;6306103;28;19924;-68
2022/10/30 13:06:23;;;;;;;;;;;;;;;;;;6303401;28;20302;-68
2022/10/30 13:09:26;;;;;;;;;;;;;;;;;;6304287;28;19958;-68
2022/10/30 13:12:29;;;;;;;;;;;;;;;;;;6305218;28;20155;-68
2022/10/30 13:15:33;;;;;;;;;;;;;;;;;;6304509;28;19925;-68
2022/10/30 13:18:34;;;;;;;;;;;;;;;;;;6303924;28;19991;-68
2022/10/30 13:21:37;;;;;;;;;;;;;;;;;;6303989;28;20001;-69
2022/10/30 13:24:42;;;;;;;;;;;;;;;;;;6305175;28;19970;-68
2022/10/30 13:27:45;;;;;;;;;;;;;;;;;;6303590;28;19924;-68
2022/10/30 13:30:59;;;;;;;;;;;;;;;;;;6303472;28;19920;-68
2022/10/30 13:34:01;;;;;;;;;;;;;;;;;;6309023;28;19962;-68
2022/10/30 13:37:04;;;;;;;;;;;;;;;;;;6306783;28;19970;-68
2022/10/30 13:40:10;;;;;;;;;;;;;;;;;;6306757;28;19923;-68
2022/10/30 13:43:16;;;;;;;;;;;;;;;;;;6304368;28;19963;-68
2022/10/30 13:46:21;;;;;;;;;;;;;;;;;;6306888;28;20121;-68
2022/10/30 13:49:27;;;;;;;;;;;;;;;;;;6306819;28;20154;-68
2022/10/30 13:52:29;;;;;;;;;;;;;;;;;;6303616;28;19931;-68
2022/10/30 13:55:31;;;;;;;;;;;;;;;;;;6305944;28;19916;-68
2022/10/30 13:58:34;;;;;;;;;;;;;;;;;;6304244;28;19928;-68
2022/10/30 14:01:38;;;;;;;;;;;;;;;;;;6306868;28;19924;-68
2022/10/30 14:04:40;;;;;;;;;;;;;;;;;;6305353;28;19924;-68
2022/10/30 14:07:42;;;;;;;;;;;;;;;;;;6304993;28;19923;-68
2022/10/30 14:10:44;;;;;;;;;;;;;;;;;;6304092;28;19916;-68
2022/10/30 14:13:47;;;;;;;;;;;;;;;;;;6304672;28;20223;-68
2022/10/30 14:17:03;;;;;;;;;;;;;;;;;;6305140;28;19928;-68
2022/10/30 14:20:24;;;;;;;;;;;;;;;;;;6304964;28;20219;-68
2022/10/30 14:23:29;;;;;;;9.63;3.35;;;;;;;;;;6301362;28;24525;-67
2022/10/30 14:26:31;;;;;;;9.05;3.25;;;;;;;;;;6306806;28;20083;-68
2022/10/30 14:29:49;;;;;;;12.10;4.22;;;;;;;;;;6303489;28;20052;-68
2022/10/30 14:32:52;;;;;;;6.50;3.55;;;;;;;;;;6306836;28;22040;-68
2022/10/30 14:36:29;;;;;;;10.88;4.00;;;;;;;;;;6303101;28;20048;-68
2022/10/30 14:39:38;;;;;;;11.18;3.35;;;;;;;;;;6269083;28;20402;-68
2022/10/30 14:42:46;;;;;;;7.28;3.13;;;;;;;;;;6308868;28;20040;-68
2022/10/30 14:45:52;;;;;;;11.85;4.03;;;;;;;;;;6308516;28;20329;-67
2022/10/30 14:49:02;;;;;;;10.25;3.85;;;;;;;;;;6313427;28;20177;-68
2022/10/30 14:52:15;;;;;;;12.02;3.45;;;;;;;;;;6304552;28;20051;-68
2022/10/30 14:55:28;;;;;;;5.45;2.78;;;;;;;;;;6305879;28;20209;-68
2022/10/30 14:58:32;;;;;;;7.13;3.70;;;;;;;;;;6304643;28;20048;-68
2022/10/30 15:01:43;;;;;;;10.55;3.17;;;;;;;;;;6309439;28;20278;-67
2022/10/30 15:04:57;;;;;;;8.13;3.42;;;;;;;;;;6306126;28;20385;-68
2022/10/30 15:08:06;;;;;;;8.55;3.80;;;;;;;;;;6309050;28;20106;-68
2022/10/30 15:11:21;;;;;;;7.55;3.60;;;;;;;;;;6309693;28;20063;-68
2022/10/30 15:14:27;;;;;;;11.40;3.75;;;;;;;;;;6304329;28;20052;-68
2022/10/30 15:17:32;;;;;;;9.07;3.72;;;;;;;;;;6309664;28;20089;-68
2022/10/30 15:20:37;;;;;;;8.13;3.72;;;;;;;;;;6307133;28;20401;-68
2022/10/30 15:23:41;;;;;;;8.35;3.67;;;;;;;;;;6306911;28;20097;-68
2022/10/30 15:26:46;;;;;;;13.63;3.58;;;;;;;;;;6307792;28;20045;-68
2022/10/30 15:29:51;;;;;;;11.45;3.55;;;;;;;;;;6307657;28;20275;-67
2022/10/30 15:32:53;;;;;;;6.75;3.53;;;;;;;;;;6308775;28;20060;-67
2022/10/30 15:35:55;;;;;;;7.07;3.80;;;;;;;;;;6308302;28;20344;-67
2022/10/30 15:39:06;;;;;;;11.02;4.07;;;;;;;;;;6306610;28;20044;-67
2022/10/30 15:42:09;;;;;;;7.10;4.28;;;;;;;;;;6306905;28;20056;-67
2022/10/30 15:45:16;;;;;;;8.00;4.35;;;;;;;;;;6309786;28;20072;-67
2022/10/30 15:48:23;;;;;;;8.35;4.30;;;;;;;;;;6306359;28;20087;-67
2022/10/30 15:51:26;;;;;;;9.55;4.57;;;;;;;;;;6307724;28;20121;-68
2022/10/30 15:54:31;;;;;;;8.82;4.80;;;;;;;;;;6311543;28;20063;-68
2022/10/30 15:57:34;;;;;;;8.77;4.25;;;;;;;;;;6307383;28;20093;-68
2022/10/30 16:00:38;;;;;;;12.30;5.03;;;;;;;;;;6308002;28;20259;-68
2022/10/30 16:03:39;;;;;;;8.55;4.50;;;;;;;;;;6307129;28;20098;-67
2022/10/30 16:06:49;;;;;;;13.55;5.68;;;;;;;;;;6304992;28;20324;-67
2022/10/30 16:09:55;;;;;;;10.57;5.32;;;;;;;;;;6305826;28;20055;-67
2022/10/30 16:12:58;;;;;;;10.48;5.00;;;;;;;;;;6305334;28;20052;-67
2022/10/30 16:16:00;;;;;;;12.55;5.43;;;;;;;;;;6308877;28;20055;-68
2022/10/30 16:19:03;;;;;;;12.02;5.78;;;;;;;;;;6304353;28;20121;-68
2022/10/30 16:22:14;;;;;;;14.68;5.82;;;;;;;;;;6302980;28;20432;-68
2022/10/30 16:25:15;;;;;;;13.93;6.13;;;;;;;;;;6305063;28;20074;-68
2022/10/30 16:28:25;;;;;;;13.27;5.55;;;;;;;;;;6302446;28;20082;-68
2022/10/30 16:31:30;;;;;;;16.30;5.57;;;;;;;;;;6304874;28;20062;-68
2022/10/30 16:34:34;;;;;;;13.63;6.65;;;;;;;;;;6303184;28;20056;-68
2022/10/30 16:37:38;;;;;;;14.77;7.55;;;;;;;;;;6304827;28;20048;-67
2022/10/30 16:40:40;;;;;;;14.50;7.10;;;;;;;;;;6306279;28;20044;-68
2022/10/30 16:43:47;;;;;;;13.05;7.65;;;;;;;;;;6305075;28;20048;-68
2022/10/30 16:46:51;;;;;;;15.65;7.82;;;;;;;;;;6306455;28;20044;-68
2022/10/30 16:49:54;;;;;;;13.07;6.70;;;;;;;;;;6306788;28;20349;-68
2022/10/30 16:52:57;;;;;;;;;;;;;;;;;;6305953;28;20077;-68
2022/10/30 16:55:59;;;;;;;12.85;6.70;;;;;;;;;;6304940;28;19916;-68
2022/10/30 16:59:07;;;;;;;17.45;9.02;;;;;;;;;;6305531;28;20052;-67
2022/10/30 17:02:16;;;;;;;18.15;8.25;;;;;;;;;;6302409;28;20136;-67
2022/10/30 17:05:20;;;;;;;14.10;7.53;;;;;;;;;;6307249;28;20101;-67
2022/10/30 17:08:40;;;;;;;20.25;7.93;;;;;;;;;;6303438;28;20109;-67
2022/10/30 17:11:46;;;;;;;19.83;7.72;;;;;;;;;;6305163;28;20403;-67
2022/10/30 17:14:52;;;;;;;18.73;9.07;;;;;;;;;;6302356;28;20060;-67
2022/10/30 17:18:09;;;;;;;18.75;9.30;;;;;;;;;;6305825;28;20150;-67
2022/10/30 17:21:11;;;;;;;19.20;9.45;;;;;;;;;;6302121;28;20343;-67
2022/10/30 17:24:20;;;;;;;16.00;8.32;;;;;;;;;;6304017;28;20090;-67
2022/10/30 17:27:43;;;;;;;15.20;8.40;;;;;;;;;;6306940;28;20577;-67
2022/10/30 17:30:46;;;;;;;21.55;8.38;;;;;;;;;;6297558;28;20044;-67
2022/10/30 17:33:49;;;;;;;18.40;8.35;;;;;;;;;;6310987;28;20147;-67
2022/10/30 17:36:50;;;;;;;18.77;9.18;;;;;;;;;;6303424;28;20316;-67
2022/10/30 17:39:53;;;;;;;19.73;9.63;;;;;;;;;;6304971;28;20270;-67
2022/10/30 17:42:55;;;;;;;18.65;9.45;;;;;;;;;;6305248;28;20048;-67
2022/10/30 17:45:56;;;;;;;17.42;9.82;;;;;;;;;;6304527;28;20053;-67
2022/10/30 17:48:58;;;;;;;18.85;9.40;;;;;;;;;;6304565;28;20053;-67
2022/10/30 17:52:01;;;;;;;19.52;9.45;;;;;;;;;;6304633;28;20060;-67
2022/10/30 17:55:17;;;;;;;22.00;9.55;;;;;;;;;;6308770;28;20056;-67
2022/10/30 17:58:19;;;;;;;16.75;8.50;;;;;;;;;;6306511;28;20093;-67
2022/10/30 18:01:22;;;;;;;16.75;7.95;;;;;;;;;;6303097;28;20037;-67
2022/10/30 18:04:23;;;;;;;13.30;7.55;;;;;;;;;;6303985;28;20052;-67
2022/10/30 18:07:25;;;;;;;13.57;7.90;;;;;;;;;;6305263;28;20044;-67
2022/10/30 18:10:28;;;;;;;13.18;8.02;;;;;;;;;;6304191;28;20172;-67
2022/10/30 18:13:30;;;;;;;14.55;7.80;;;;;;;;;;6305037;28;20081;-67
2022/10/30 18:16:31;;;;;;;19.02;7.78;;;;;;;;;;6304633;28;20056;-67
2022/10/30 18:19:33;;;;;;;14.45;8.02;;;;;;;;;;6303219;28;20052;-67
2022/10/30 18:22:34;;;;;;;16.65;8.70;;;;;;;;;;6305821;28;20213;-67
2022/10/30 18:25:38;;;;;;;23.77;8.88;;;;;;;;;;6304063;28;20056;-67
2022/10/30 18:28:40;;;;;;;18.92;9.40;;;;;;;;;;6303848;28;20056;-67
2022/10/30 18:31:42;;;;;;;16.63;9.35;;;;;;;;;;6305558;28;20052;-67
2022/10/30 18:34:43;;;;;;;17.30;9.68;;;;;;;;;;6305951;28;20141;-67
2022/10/30 18:37:45;;;;;;;16.25;9.27;;;;;;;;;;6308736;28;20117;-67
2022/10/30 18:40:49;;;;;;;22.02;9.95;;;;;;;;;;6306224;28;20457;-67
2022/10/30 18:43:51;;;;;;;15.02;9.30;;;;;;;;;;6308511;28;20056;-67
2022/10/30 18:46:52;;;;;;;19.58;9.82;;;;;;;;;;6313098;28;20055;-67